sensor_id;sensor_type;location;lat;lon;timestamp;P1;durP1;ratioP1;P2;durP2;ratioP2
18172;SDS011;9211;48.818;9.312;2022-10-16T00:00:47;4.30;;;1.90;;
18172;SDS011;9211;48.818;9.312;2022-10-16T00:03:14;4.05;;;1.85;;
18172;SDS011;9211;48.818;9.312;2022-10-16T00:05:41;5.13;;;2.00;;
18172;SDS011;9211;48.818;9.312;2022-10-16T00:08:11;5.55;;;1.90;;
18172;SDS011;9211;48.818;9.312;2022-10-16T00:10:39;5.53;;;2.10;;
18172;SDS011;9211;48.818;9.312;2022-10-16T00:13:06;3.43;;;1.93;;
18172;SDS011;9211;48.818;9.312;2022-10-16T00:15:34;5.68;;;1.83;;
18172;SDS011;9211;48.818;9.312;2022-10-16T00:18:04;4.45;;;1.85;;
18172;SDS011;9211;48.818;9.312;2022-10-16T00:20:33;3.70;;;2.08;;
18172;SDS011;9211;48.818;9.312;2022-10-16T00:23:02;5.18;;;1.98;;
18172;SDS011;9211;48.818;9.312;2022-10-16T00:25:29;8.00;;;2.50;;
18172;SDS011;9211;48.818;9.312;2022-10-16T00:27:59;4.40;;;2.00;;
18172;SDS011;9211;48.818;9.312;2022-10-16T00:30:26;5.10;;;2.00;;
18172;SDS011;9211;48.818;9.312;2022-10-16T00:32:54;5.85;;;1.95;;
18172;SDS011;9211;48.818;9.312;2022-10-16T00:35:21;6.20;;;2.10;;
18172;SDS011;9211;48.818;9.312;2022-10-16T00:37:48;3.45;;;1.80;;
18172;SDS011;9211;48.818;9.312;2022-10-16T00:40:15;5.40;;;1.95;;
18172;SDS011;9211;48.818;9.312;2022-10-16T00:42:42;2.97;;;1.80;;
18172;SDS011;9211;48.818;9.312;2022-10-16T00:45:11;5.30;;;2.00;;
18172;SDS011;9211;48.818;9.312;2022-10-16T00:47:39;5.15;;;2.00;;
18172;SDS011;9211;48.818;9.312;2022-10-16T00:50:10;5.13;;;2.05;;
18172;SDS011;9211;48.818;9.312;2022-10-16T00:52:45;4.32;;;1.90;;
18172;SDS011;9211;48.818;9.312;2022-10-16T00:55:14;4.80;;;1.70;;
18172;SDS011;9211;48.818;9.312;2022-10-16T00:57:41;3.85;;;1.83;;
18172;SDS011;9211;48.818;9.312;2022-10-16T01:00:13;5.20;;;1.98;;
18172;SDS011;9211;48.818;9.312;2022-10-16T01:02:41;3.90;;;2.03;;
18172;SDS011;9211;48.818;9.312;2022-10-16T01:05:08;3.88;;;1.90;;
18172;SDS011;9211;48.818;9.312;2022-10-16T01:07:38;4.57;;;1.90;;
18172;SDS011;9211;48.818;9.312;2022-10-16T01:10:14;5.03;;;1.75;;
18172;SDS011;9211;48.818;9.312;2022-10-16T01:12:52;5.53;;;1.97;;
18172;SDS011;9211;48.818;9.312;2022-10-16T01:15:27;7.68;;;2.30;;
18172;SDS011;9211;48.818;9.312;2022-10-16T01:18:00;4.50;;;1.95;;
18172;SDS011;9211;48.818;9.312;2022-10-16T01:20:33;5.93;;;1.90;;
18172;SDS011;9211;48.818;9.312;2022-10-16T01:23:06;3.83;;;1.95;;
18172;SDS011;9211;48.818;9.312;2022-10-16T01:25:51;2.60;;;1.60;;
18172;SDS011;9211;48.818;9.312;2022-10-16T01:28:43;5.88;;;1.95;;
18172;SDS011;9211;48.818;9.312;2022-10-16T01:31:17;4.15;;;1.98;;
18172;SDS011;9211;48.818;9.312;2022-10-16T01:33:46;4.85;;;2.33;;
18172;SDS011;9211;48.818;9.312;2022-10-16T01:36:18;5.75;;;2.00;;
18172;SDS011;9211;48.818;9.312;2022-10-16T01:38:50;5.53;;;2.10;;
18172;SDS011;9211;48.818;9.312;2022-10-16T01:41:20;5.10;;;2.10;;
18172;SDS011;9211;48.818;9.312;2022-10-16T01:43:53;3.33;;;1.83;;
18172;SDS011;9211;48.818;9.312;2022-10-16T01:46:28;3.38;;;1.85;;
18172;SDS011;9211;48.818;9.312;2022-10-16T01:48:58;4.57;;;1.90;;
18172;SDS011;9211;48.818;9.312;2022-10-16T01:51:27;2.50;;;1.60;;
18172;SDS011;9211;48.818;9.312;2022-10-16T01:53:56;4.47;;;1.90;;
18172;SDS011;9211;48.818;9.312;2022-10-16T01:56:26;3.25;;;1.70;;
18172;SDS011;9211;48.818;9.312;2022-10-16T01:58:57;4.20;;;1.80;;
18172;SDS011;9211;48.818;9.312;2022-10-16T02:01:28;4.85;;;1.70;;
18172;SDS011;9211;48.818;9.312;2022-10-16T02:03:58;5.78;;;1.80;;
18172;SDS011;9211;48.818;9.312;2022-10-16T02:06:30;4.28;;;1.80;;
18172;SDS011;9211;48.818;9.312;2022-10-16T02:08:58;4.73;;;1.90;;
18172;SDS011;9211;48.818;9.312;2022-10-16T02:11:25;4.50;;;1.90;;
18172;SDS011;9211;48.818;9.312;2022-10-16T02:13:53;4.07;;;1.88;;
18172;SDS011;9211;48.818;9.312;2022-10-16T02:16:32;4.03;;;1.77;;
18172;SDS011;9211;48.818;9.312;2022-10-16T02:19:00;2.97;;;1.60;;
18172;SDS011;9211;48.818;9.312;2022-10-16T02:21:28;4.90;;;1.90;;
18172;SDS011;9211;48.818;9.312;2022-10-16T02:23:58;5.00;;;1.77;;
18172;SDS011;9211;48.818;9.312;2022-10-16T02:26:35;5.93;;;1.77;;
18172;SDS011;9211;48.818;9.312;2022-10-16T02:29:08;4.97;;;1.60;;
18172;SDS011;9211;48.818;9.312;2022-10-16T02:31:40;4.35;;;1.67;;
18172;SDS011;9211;48.818;9.312;2022-10-16T02:34:12;3.00;;;1.50;;
18172;SDS011;9211;48.818;9.312;2022-10-16T02:36:40;3.20;;;1.60;;
18172;SDS011;9211;48.818;9.312;2022-10-16T02:39:09;3.92;;;1.83;;
18172;SDS011;9211;48.818;9.312;2022-10-16T02:41:37;3.08;;;1.70;;
18172;SDS011;9211;48.818;9.312;2022-10-16T02:44:04;3.60;;;1.60;;
18172;SDS011;9211;48.818;9.312;2022-10-16T02:46:32;4.95;;;1.67;;
18172;SDS011;9211;48.818;9.312;2022-10-16T02:48:59;6.75;;;2.03;;
18172;SDS011;9211;48.818;9.312;2022-10-16T02:51:26;5.90;;;1.90;;
18172;SDS011;9211;48.818;9.312;2022-10-16T02:53:53;5.88;;;1.70;;
18172;SDS011;9211;48.818;9.312;2022-10-16T02:56:20;3.28;;;1.67;;
18172;SDS011;9211;48.818;9.312;2022-10-16T02:58:47;2.85;;;1.58;;
18172;SDS011;9211;48.818;9.312;2022-10-16T03:01:14;3.65;;;1.70;;
18172;SDS011;9211;48.818;9.312;2022-10-16T03:03:43;5.63;;;1.70;;
18172;SDS011;9211;48.818;9.312;2022-10-16T03:06:11;4.47;;;1.70;;
18172;SDS011;9211;48.818;9.312;2022-10-16T03:08:37;4.53;;;1.70;;
18172;SDS011;9211;48.818;9.312;2022-10-16T03:11:04;3.53;;;1.70;;
18172;SDS011;9211;48.818;9.312;2022-10-16T03:13:31;5.80;;;1.70;;
18172;SDS011;9211;48.818;9.312;2022-10-16T03:15:58;4.63;;;1.77;;
18172;SDS011;9211;48.818;9.312;2022-10-16T03:18:25;3.20;;;1.77;;
18172;SDS011;9211;48.818;9.312;2022-10-16T03:20:53;5.00;;;1.80;;
18172;SDS011;9211;48.818;9.312;2022-10-16T03:23:20;4.95;;;1.77;;
18172;SDS011;9211;48.818;9.312;2022-10-16T03:25:47;2.92;;;1.70;;
18172;SDS011;9211;48.818;9.312;2022-10-16T03:28:14;6.27;;;1.70;;
18172;SDS011;9211;48.818;9.312;2022-10-16T03:30:42;3.37;;;1.77;;
18172;SDS011;9211;48.818;9.312;2022-10-16T03:33:09;5.70;;;1.80;;
18172;SDS011;9211;48.818;9.312;2022-10-16T03:35:36;3.37;;;1.73;;
18172;SDS011;9211;48.818;9.312;2022-10-16T03:38:05;5.28;;;1.90;;
18172;SDS011;9211;48.818;9.312;2022-10-16T03:40:32;3.80;;;1.65;;
18172;SDS011;9211;48.818;9.312;2022-10-16T03:42:59;2.95;;;1.60;;
18172;SDS011;9211;48.818;9.312;2022-10-16T03:45:26;6.20;;;1.57;;
18172;SDS011;9211;48.818;9.312;2022-10-16T03:47:53;4.07;;;1.70;;
18172;SDS011;9211;48.818;9.312;2022-10-16T03:50:20;3.72;;;1.50;;
18172;SDS011;9211;48.818;9.312;2022-10-16T03:52:47;4.97;;;1.58;;
18172;SDS011;9211;48.818;9.312;2022-10-16T03:55:15;4.05;;;1.77;;
18172;SDS011;9211;48.818;9.312;2022-10-16T03:57:42;4.10;;;1.60;;
18172;SDS011;9211;48.818;9.312;2022-10-16T04:00:10;3.00;;;1.60;;
18172;SDS011;9211;48.818;9.312;2022-10-16T04:02:38;3.53;;;1.90;;
18172;SDS011;9211;48.818;9.312;2022-10-16T04:05:05;3.05;;;1.60;;
18172;SDS011;9211;48.818;9.312;2022-10-16T04:07:32;5.30;;;1.80;;
18172;SDS011;9211;48.818;9.312;2022-10-16T04:09:59;4.10;;;1.70;;
18172;SDS011;9211;48.818;9.312;2022-10-16T04:12:28;4.05;;;1.80;;
18172;SDS011;9211;48.818;9.312;2022-10-16T04:14:55;3.25;;;1.73;;
18172;SDS011;9211;48.818;9.312;2022-10-16T04:17:22;3.40;;;1.80;;
18172;SDS011;9211;48.818;9.312;2022-10-16T04:19:48;4.80;;;2.15;;
18172;SDS011;9211;48.818;9.312;2022-10-16T04:22:15;4.85;;;1.92;;
18172;SDS011;9211;48.818;9.312;2022-10-16T04:24:42;4.20;;;1.70;;
18172;SDS011;9211;48.818;9.312;2022-10-16T04:27:09;6.55;;;1.80;;
18172;SDS011;9211;48.818;9.312;2022-10-16T04:29:38;3.33;;;1.60;;
18172;SDS011;9211;48.818;9.312;2022-10-16T04:32:05;3.47;;;1.52;;
18172;SDS011;9211;48.818;9.312;2022-10-16T04:34:33;3.85;;;1.63;;
18172;SDS011;9211;48.818;9.312;2022-10-16T04:37:00;5.07;;;2.10;;
18172;SDS011;9211;48.818;9.312;2022-10-16T04:39:27;4.60;;;1.73;;
18172;SDS011;9211;48.818;9.312;2022-10-16T04:41:54;6.50;;;2.03;;
18172;SDS011;9211;48.818;9.312;2022-10-16T04:44:21;4.32;;;1.60;;
18172;SDS011;9211;48.818;9.312;2022-10-16T04:46:51;3.97;;;1.60;;
18172;SDS011;9211;48.818;9.312;2022-10-16T04:49:18;3.75;;;1.70;;
18172;SDS011;9211;48.818;9.312;2022-10-16T04:51:45;3.65;;;1.77;;
18172;SDS011;9211;48.818;9.312;2022-10-16T04:54:12;2.67;;;1.60;;
18172;SDS011;9211;48.818;9.312;2022-10-16T04:56:39;3.97;;;1.67;;
18172;SDS011;9211;48.818;9.312;2022-10-16T04:59:11;4.13;;;1.90;;
18172;SDS011;9211;48.818;9.312;2022-10-16T05:01:39;4.45;;;1.85;;
18172;SDS011;9211;48.818;9.312;2022-10-16T05:04:07;4.07;;;1.73;;
18172;SDS011;9211;48.818;9.312;2022-10-16T05:06:35;4.13;;;1.60;;
18172;SDS011;9211;48.818;9.312;2022-10-16T05:09:03;4.70;;;2.00;;
18172;SDS011;9211;48.818;9.312;2022-10-16T05:11:31;2.45;;;1.67;;
18172;SDS011;9211;48.818;9.312;2022-10-16T05:13:58;6.32;;;2.03;;
18172;SDS011;9211;48.818;9.312;2022-10-16T05:16:25;3.72;;;1.52;;
18172;SDS011;9211;48.818;9.312;2022-10-16T05:18:52;3.90;;;1.70;;
18172;SDS011;9211;48.818;9.312;2022-10-16T05:21:21;4.93;;;1.60;;
18172;SDS011;9211;48.818;9.312;2022-10-16T05:23:48;5.65;;;1.77;;
18172;SDS011;9211;48.818;9.312;2022-10-16T05:26:15;6.43;;;1.90;;
18172;SDS011;9211;48.818;9.312;2022-10-16T05:28:42;5.68;;;1.85;;
18172;SDS011;9211;48.818;9.312;2022-10-16T05:31:09;3.40;;;1.98;;
18172;SDS011;9211;48.818;9.312;2022-10-16T05:33:36;5.60;;;1.85;;
18172;SDS011;9211;48.818;9.312;2022-10-16T05:36:04;5.00;;;1.90;;
18172;SDS011;9211;48.818;9.312;2022-10-16T05:38:34;5.90;;;1.80;;
18172;SDS011;9211;48.818;9.312;2022-10-16T05:41:02;4.20;;;2.00;;
18172;SDS011;9211;48.818;9.312;2022-10-16T05:43:30;4.53;;;1.90;;
18172;SDS011;9211;48.818;9.312;2022-10-16T05:45:58;4.70;;;2.00;;
18172;SDS011;9211;48.818;9.312;2022-10-16T05:48:26;3.53;;;1.90;;
18172;SDS011;9211;48.818;9.312;2022-10-16T05:50:57;5.72;;;2.00;;
18172;SDS011;9211;48.818;9.312;2022-10-16T05:53:24;5.15;;;1.90;;
18172;SDS011;9211;48.818;9.312;2022-10-16T05:55:53;5.25;;;1.90;;
18172;SDS011;9211;48.818;9.312;2022-10-16T05:58:20;5.13;;;2.00;;
18172;SDS011;9211;48.818;9.312;2022-10-16T06:00:54;3.13;;;1.90;;
18172;SDS011;9211;48.818;9.312;2022-10-16T06:03:22;4.90;;;1.88;;
18172;SDS011;9211;48.818;9.312;2022-10-16T06:05:49;2.90;;;1.70;;
18172;SDS011;9211;48.818;9.312;2022-10-16T06:08:18;3.85;;;1.95;;
18172;SDS011;9211;48.818;9.312;2022-10-16T06:10:45;4.32;;;1.88;;
18172;SDS011;9211;48.818;9.312;2022-10-16T06:13:15;3.70;;;1.90;;
18172;SDS011;9211;48.818;9.312;2022-10-16T06:15:42;5.95;;;2.15;;
18172;SDS011;9211;48.818;9.312;2022-10-16T06:18:09;3.30;;;2.00;;
18172;SDS011;9211;48.818;9.312;2022-10-16T06:20:37;4.00;;;1.85;;
18172;SDS011;9211;48.818;9.312;2022-10-16T06:23:04;5.38;;;1.80;;
18172;SDS011;9211;48.818;9.312;2022-10-16T06:25:31;6.90;;;2.35;;
18172;SDS011;9211;48.818;9.312;2022-10-16T06:27:58;3.83;;;1.80;;
18172;SDS011;9211;48.818;9.312;2022-10-16T06:30:27;4.00;;;1.73;;
18172;SDS011;9211;48.818;9.312;2022-10-16T06:32:54;4.03;;;1.90;;
18172;SDS011;9211;48.818;9.312;2022-10-16T06:35:21;6.10;;;1.90;;
18172;SDS011;9211;48.818;9.312;2022-10-16T06:37:48;6.65;;;1.77;;
18172;SDS011;9211;48.818;9.312;2022-10-16T06:40:16;2.65;;;1.92;;
18172;SDS011;9211;48.818;9.312;2022-10-16T06:42:42;6.85;;;2.00;;
18172;SDS011;9211;48.818;9.312;2022-10-16T06:45:10;3.70;;;1.80;;
18172;SDS011;9211;48.818;9.312;2022-10-16T06:47:39;3.25;;;1.98;;
18172;SDS011;9211;48.818;9.312;2022-10-16T06:50:06;4.72;;;1.65;;
18172;SDS011;9211;48.818;9.312;2022-10-16T06:52:33;4.68;;;1.90;;
18172;SDS011;9211;48.818;9.312;2022-10-16T06:55:00;2.40;;;1.63;;
18172;SDS011;9211;48.818;9.312;2022-10-16T06:57:28;3.67;;;1.80;;
18172;SDS011;9211;48.818;9.312;2022-10-16T06:59:55;3.83;;;1.60;;
18172;SDS011;9211;48.818;9.312;2022-10-16T07:02:22;4.00;;;1.60;;
18172;SDS011;9211;48.818;9.312;2022-10-16T07:04:50;5.10;;;1.65;;
18172;SDS011;9211;48.818;9.312;2022-10-16T07:07:17;5.75;;;1.80;;
18172;SDS011;9211;48.818;9.312;2022-10-16T07:09:44;2.95;;;1.67;;
18172;SDS011;9211;48.818;9.312;2022-10-16T07:12:11;2.70;;;1.50;;
18172;SDS011;9211;48.818;9.312;2022-10-16T07:14:38;2.35;;;1.60;;
18172;SDS011;9211;48.818;9.312;2022-10-16T07:17:05;2.60;;;1.60;;
18172;SDS011;9211;48.818;9.312;2022-10-16T07:19:32;3.58;;;1.70;;
18172;SDS011;9211;48.818;9.312;2022-10-16T07:22:00;3.17;;;1.45;;
18172;SDS011;9211;48.818;9.312;2022-10-16T07:24:28;4.25;;;1.80;;
18172;SDS011;9211;48.818;9.312;2022-10-16T07:26:55;3.17;;;1.60;;
18172;SDS011;9211;48.818;9.312;2022-10-16T07:29:22;3.67;;;1.60;;
18172;SDS011;9211;48.818;9.312;2022-10-16T07:31:49;6.72;;;1.70;;
18172;SDS011;9211;48.818;9.312;2022-10-16T07:34:19;4.65;;;1.40;;
18172;SDS011;9211;48.818;9.312;2022-10-16T07:36:48;5.38;;;1.60;;
18172;SDS011;9211;48.818;9.312;2022-10-16T07:39:17;4.93;;;1.73;;
18172;SDS011;9211;48.818;9.312;2022-10-16T07:41:44;3.85;;;1.52;;
18172;SDS011;9211;48.818;9.312;2022-10-16T07:44:11;2.92;;;1.50;;
18172;SDS011;9211;48.818;9.312;2022-10-16T07:46:38;2.92;;;1.52;;
18172;SDS011;9211;48.818;9.312;2022-10-16T07:49:05;6.40;;;1.60;;
18172;SDS011;9211;48.818;9.312;2022-10-16T07:51:32;2.35;;;1.45;;
18172;SDS011;9211;48.818;9.312;2022-10-16T07:53:59;4.20;;;1.80;;
18172;SDS011;9211;48.818;9.312;2022-10-16T07:56:28;4.68;;;2.00;;
18172;SDS011;9211;48.818;9.312;2022-10-16T07:58:57;4.60;;;1.95;;
18172;SDS011;9211;48.818;9.312;2022-10-16T08:01:24;4.30;;;2.08;;
18172;SDS011;9211;48.818;9.312;2022-10-16T08:03:51;3.30;;;2.03;;
18172;SDS011;9211;48.818;9.312;2022-10-16T08:06:19;2.70;;;1.88;;
18172;SDS011;9211;48.818;9.312;2022-10-16T08:08:47;3.72;;;1.90;;
18172;SDS011;9211;48.818;9.312;2022-10-16T08:11:14;3.08;;;1.77;;
18172;SDS011;9211;48.818;9.312;2022-10-16T08:13:43;3.38;;;1.77;;
18172;SDS011;9211;48.818;9.312;2022-10-16T08:16:10;3.40;;;1.80;;
18172;SDS011;9211;48.818;9.312;2022-10-16T08:18:37;3.22;;;1.80;;
18172;SDS011;9211;48.818;9.312;2022-10-16T08:21:06;3.83;;;1.80;;
18172;SDS011;9211;48.818;9.312;2022-10-16T08:23:37;4.50;;;1.80;;
18172;SDS011;9211;48.818;9.312;2022-10-16T08:26:05;3.33;;;1.75;;
18172;SDS011;9211;48.818;9.312;2022-10-16T08:28:33;3.80;;;1.70;;
18172;SDS011;9211;48.818;9.312;2022-10-16T08:31:10;4.93;;;1.80;;
18172;SDS011;9211;48.818;9.312;2022-10-16T08:33:38;3.30;;;1.80;;
18172;SDS011;9211;48.818;9.312;2022-10-16T08:36:06;7.15;;;2.03;;
18172;SDS011;9211;48.818;9.312;2022-10-16T08:38:33;2.75;;;1.70;;
18172;SDS011;9211;48.818;9.312;2022-10-16T08:41:03;4.43;;;1.70;;
18172;SDS011;9211;48.818;9.312;2022-10-16T08:43:54;3.15;;;1.73;;
18172;SDS011;9211;48.818;9.312;2022-10-16T08:46:37;3.80;;;1.58;;
18172;SDS011;9211;48.818;9.312;2022-10-16T08:49:12;3.20;;;1.50;;
18172;SDS011;9211;48.818;9.312;2022-10-16T08:51:40;2.15;;;1.23;;
18172;SDS011;9211;48.818;9.312;2022-10-16T08:54:12;2.20;;;1.40;;
18172;SDS011;9211;48.818;9.312;2022-10-16T08:56:49;2.15;;;1.27;;
18172;SDS011;9211;48.818;9.312;2022-10-16T08:59:18;2.73;;;1.30;;
18172;SDS011;9211;48.818;9.312;2022-10-16T09:01:48;3.30;;;1.13;;
18172;SDS011;9211;48.818;9.312;2022-10-16T09:04:26;2.95;;;1.20;;
18172;SDS011;9211;48.818;9.312;2022-10-16T09:07:18;2.47;;;1.50;;
18172;SDS011;9211;48.818;9.312;2022-10-16T09:09:59;3.20;;;1.60;;
18172;SDS011;9211;48.818;9.312;2022-10-16T09:12:43;2.33;;;1.33;;
18172;SDS011;9211;48.818;9.312;2022-10-16T09:15:21;1.90;;;1.20;;
18172;SDS011;9211;48.818;9.312;2022-10-16T09:17:56;2.22;;;1.15;;
18172;SDS011;9211;48.818;9.312;2022-10-16T09:20:32;2.20;;;1.17;;
18172;SDS011;9211;48.818;9.312;2022-10-16T09:23:12;1.95;;;1.20;;
18172;SDS011;9211;48.818;9.312;2022-10-16T09:25:43;3.17;;;1.20;;
18172;SDS011;9211;48.818;9.312;2022-10-16T09:28:12;3.53;;;1.10;;
18172;SDS011;9211;48.818;9.312;2022-10-16T09:30:40;2.70;;;1.20;;
18172;SDS011;9211;48.818;9.312;2022-10-16T09:33:09;3.35;;;1.00;;
18172;SDS011;9211;48.818;9.312;2022-10-16T09:35:37;1.92;;;0.95;;
18172;SDS011;9211;48.818;9.312;2022-10-16T09:38:06;2.87;;;1.10;;
18172;SDS011;9211;48.818;9.312;2022-10-16T09:40:34;1.70;;;1.10;;
18172;SDS011;9211;48.818;9.312;2022-10-16T09:43:15;2.15;;;1.23;;
18172;SDS011;9211;48.818;9.312;2022-10-16T09:45:53;5.43;;;1.38;;
18172;SDS011;9211;48.818;9.312;2022-10-16T09:48:26;3.80;;;1.23;;
18172;SDS011;9211;48.818;9.312;2022-10-16T09:50:58;2.35;;;1.13;;
18172;SDS011;9211;48.818;9.312;2022-10-16T09:53:26;1.70;;;1.10;;
18172;SDS011;9211;48.818;9.312;2022-10-16T09:56:07;2.00;;;1.20;;
18172;SDS011;9211;48.818;9.312;2022-10-16T09:58:41;1.63;;;1.10;;
18172;SDS011;9211;48.818;9.312;2022-10-16T10:01:11;2.35;;;1.13;;
18172;SDS011;9211;48.818;9.312;2022-10-16T10:03:42;4.43;;;1.05;;
18172;SDS011;9211;48.818;9.312;2022-10-16T10:06:17;2.17;;;1.17;;
18172;SDS011;9211;48.818;9.312;2022-10-16T10:09:02;3.20;;;1.00;;
18172;SDS011;9211;48.818;9.312;2022-10-16T10:11:39;2.22;;;1.30;;
18172;SDS011;9211;48.818;9.312;2022-10-16T10:14:18;3.17;;;1.40;;
18172;SDS011;9211;48.818;9.312;2022-10-16T10:16:48;2.70;;;1.50;;
18172;SDS011;9211;48.818;9.312;2022-10-16T10:19:18;2.60;;;1.30;;
18172;SDS011;9211;48.818;9.312;2022-10-16T10:21:47;1.70;;;1.00;;
18172;SDS011;9211;48.818;9.312;2022-10-16T10:24:15;3.30;;;1.13;;
18172;SDS011;9211;48.818;9.312;2022-10-16T10:26:47;2.45;;;1.05;;
18172;SDS011;9211;48.818;9.312;2022-10-16T10:32:09;2.05;;;1.08;;
18172;SDS011;9211;48.818;9.312;2022-10-16T10:34:51;2.78;;;1.20;;
18172;SDS011;9211;48.818;9.312;2022-10-16T10:37:37;3.60;;;1.15;;
18172;SDS011;9211;48.818;9.312;2022-10-16T10:40:29;2.80;;;1.00;;
18172;SDS011;9211;48.818;9.312;2022-10-16T10:43:07;3.78;;;1.17;;
18172;SDS011;9211;48.818;9.312;2022-10-16T10:45:42;2.58;;;1.17;;
18172;SDS011;9211;48.818;9.312;2022-10-16T10:48:17;2.50;;;0.90;;
18172;SDS011;9211;48.818;9.312;2022-10-16T10:50:54;2.50;;;1.15;;
18172;SDS011;9211;48.818;9.312;2022-10-16T10:53:31;2.05;;;1.10;;
18172;SDS011;9211;48.818;9.312;2022-10-16T10:56:09;4.22;;;1.20;;
18172;SDS011;9211;48.818;9.312;2022-10-16T10:58:59;1.88;;;1.15;;
18172;SDS011;9211;48.818;9.312;2022-10-16T11:01:35;2.80;;;1.20;;
18172;SDS011;9211;48.818;9.312;2022-10-16T11:04:18;3.43;;;1.17;;
18172;SDS011;9211;48.818;9.312;2022-10-16T11:07:00;2.25;;;1.10;;
18172;SDS011;9211;48.818;9.312;2022-10-16T11:09:31;3.08;;;1.13;;
18172;SDS011;9211;48.818;9.312;2022-10-16T11:12:05;3.10;;;1.30;;
18172;SDS011;9211;48.818;9.312;2022-10-16T11:14:38;3.17;;;1.10;;
18172;SDS011;9211;48.818;9.312;2022-10-16T11:17:11;11.70;;;6.63;;
18172;SDS011;9211;48.818;9.312;2022-10-16T11:19:42;13.00;;;7.22;;
18172;SDS011;9211;48.818;9.312;2022-10-16T11:22:15;13.05;;;7.78;;
18172;SDS011;9211;48.818;9.312;2022-10-16T11:24:46;4.40;;;1.80;;
18172;SDS011;9211;48.818;9.312;2022-10-16T11:27:19;2.07;;;1.10;;
18172;SDS011;9211;48.818;9.312;2022-10-16T11:29:51;2.55;;;1.00;;
18172;SDS011;9211;48.818;9.312;2022-10-16T11:32:23;3.20;;;0.95;;
18172;SDS011;9211;48.818;9.312;2022-10-16T11:34:57;3.47;;;1.10;;
18172;SDS011;9211;48.818;9.312;2022-10-16T11:37:29;2.42;;;0.98;;
18172;SDS011;9211;48.818;9.312;2022-10-16T11:40:04;1.98;;;1.05;;
18172;SDS011;9211;48.818;9.312;2022-10-16T11:42:43;1.48;;;1.10;;
18172;SDS011;9211;48.818;9.312;2022-10-16T11:45:17;4.00;;;1.10;;
18172;SDS011;9211;48.818;9.312;2022-10-16T11:47:54;1.97;;;1.10;;
18172;SDS011;9211;48.818;9.312;2022-10-16T11:50:29;3.38;;;0.90;;
18172;SDS011;9211;48.818;9.312;2022-10-16T11:53:03;3.50;;;1.20;;
18172;SDS011;9211;48.818;9.312;2022-10-16T11:55:39;1.70;;;1.00;;
18172;SDS011;9211;48.818;9.312;2022-10-16T11:58:07;2.08;;;0.90;;
18172;SDS011;9211;48.818;9.312;2022-10-16T12:00:40;3.20;;;1.10;;
18172;SDS011;9211;48.818;9.312;2022-10-16T12:03:15;3.38;;;1.00;;
18172;SDS011;9211;48.818;9.312;2022-10-16T12:05:52;3.35;;;0.90;;
18172;SDS011;9211;48.818;9.312;2022-10-16T12:08:29;3.13;;;1.00;;
18172;SDS011;9211;48.818;9.312;2022-10-16T12:11:06;2.20;;;0.90;;
18172;SDS011;9211;48.818;9.312;2022-10-16T12:13:35;2.33;;;0.70;;
18172;SDS011;9211;48.818;9.312;2022-10-16T12:16:04;2.95;;;1.00;;
18172;SDS011;9211;48.818;9.312;2022-10-16T12:18:46;1.42;;;0.90;;
18172;SDS011;9211;48.818;9.312;2022-10-16T12:21:15;1.50;;;0.95;;
18172;SDS011;9211;48.818;9.312;2022-10-16T12:23:49;1.48;;;0.90;;
18172;SDS011;9211;48.818;9.312;2022-10-16T12:26:25;1.52;;;0.90;;
18172;SDS011;9211;48.818;9.312;2022-10-16T12:28:54;1.52;;;1.10;;
18172;SDS011;9211;48.818;9.312;2022-10-16T12:31:22;1.85;;;1.05;;
18172;SDS011;9211;48.818;9.312;2022-10-16T12:33:55;1.88;;;1.00;;
18172;SDS011;9211;48.818;9.312;2022-10-16T12:36:28;1.60;;;1.00;;
18172;SDS011;9211;48.818;9.312;2022-10-16T12:38:57;1.17;;;0.90;;
18172;SDS011;9211;48.818;9.312;2022-10-16T12:41:26;2.60;;;1.10;;
18172;SDS011;9211;48.818;9.312;2022-10-16T12:43:54;3.00;;;1.30;;
18172;SDS011;9211;48.818;9.312;2022-10-16T12:46:23;2.40;;;1.40;;
18172;SDS011;9211;48.818;9.312;2022-10-16T12:49:05;2.28;;;1.10;;
18172;SDS011;9211;48.818;9.312;2022-10-16T12:51:47;2.92;;;1.00;;
18172;SDS011;9211;48.818;9.312;2022-10-16T12:54:16;3.22;;;1.20;;
18172;SDS011;9211;48.818;9.312;2022-10-16T12:56:49;1.88;;;1.13;;
18172;SDS011;9211;48.818;9.312;2022-10-16T12:59:28;1.35;;;1.00;;
18172;SDS011;9211;48.818;9.312;2022-10-16T13:02:08;1.57;;;1.00;;
18172;SDS011;9211;48.818;9.312;2022-10-16T13:05:08;2.10;;;1.00;;
18172;SDS011;9211;48.818;9.312;2022-10-16T13:07:53;1.85;;;1.13;;
18172;SDS011;9211;48.818;9.312;2022-10-16T13:10:33;2.28;;;1.00;;
18172;SDS011;9211;48.818;9.312;2022-10-16T13:13:10;3.40;;;1.20;;
18172;SDS011;9211;48.818;9.312;2022-10-16T13:15:56;1.98;;;1.20;;
18172;SDS011;9211;48.818;9.312;2022-10-16T13:18:33;2.57;;;1.17;;
18172;SDS011;9211;48.818;9.312;2022-10-16T13:21:10;4.45;;;1.20;;
18172;SDS011;9211;48.818;9.312;2022-10-16T13:23:59;2.97;;;1.20;;
18172;SDS011;9211;48.818;9.312;2022-10-16T13:26:36;3.97;;;1.10;;
18172;SDS011;9211;48.818;9.312;2022-10-16T13:29:10;2.28;;;1.00;;
18172;SDS011;9211;48.818;9.312;2022-10-16T13:31:38;1.58;;;1.10;;
18172;SDS011;9211;48.818;9.312;2022-10-16T13:34:06;3.38;;;1.08;;
18172;SDS011;9211;48.818;9.312;2022-10-16T13:36:43;3.47;;;1.60;;
18172;SDS011;9211;48.818;9.312;2022-10-16T13:39:12;2.45;;;1.08;;
18172;SDS011;9211;48.818;9.312;2022-10-16T13:41:41;2.03;;;1.10;;
18172;SDS011;9211;48.818;9.312;2022-10-16T13:44:11;2.92;;;1.10;;
18172;SDS011;9211;48.818;9.312;2022-10-16T13:46:41;2.00;;;0.98;;
18172;SDS011;9211;48.818;9.312;2022-10-16T13:49:11;1.80;;;1.05;;
18172;SDS011;9211;48.818;9.312;2022-10-16T13:51:40;1.70;;;1.00;;
18172;SDS011;9211;48.818;9.312;2022-10-16T13:54:08;3.67;;;1.10;;
18172;SDS011;9211;48.818;9.312;2022-10-16T13:56:38;1.27;;;1.00;;
18172;SDS011;9211;48.818;9.312;2022-10-16T13:59:21;4.57;;;1.20;;
18172;SDS011;9211;48.818;9.312;2022-10-16T14:01:50;1.92;;;1.15;;
18172;SDS011;9211;48.818;9.312;2022-10-16T14:04:20;2.10;;;1.10;;
18172;SDS011;9211;48.818;9.312;2022-10-16T14:06:48;3.38;;;1.10;;
18172;SDS011;9211;48.818;9.312;2022-10-16T14:09:20;3.90;;;1.10;;
18172;SDS011;9211;48.818;9.312;2022-10-16T14:11:51;2.80;;;1.20;;
18172;SDS011;9211;48.818;9.312;2022-10-16T14:14:23;1.50;;;1.00;;
18172;SDS011;9211;48.818;9.312;2022-10-16T14:16:51;2.75;;;1.02;;
18172;SDS011;9211;48.818;9.312;2022-10-16T14:19:19;2.17;;;0.98;;
18172;SDS011;9211;48.818;9.312;2022-10-16T14:21:48;1.40;;;1.00;;
18172;SDS011;9211;48.818;9.312;2022-10-16T14:24:24;1.40;;;0.90;;
18172;SDS011;9211;48.818;9.312;2022-10-16T14:26:53;1.70;;;1.00;;
18172;SDS011;9211;48.818;9.312;2022-10-16T14:29:23;2.72;;;1.10;;
18172;SDS011;9211;48.818;9.312;2022-10-16T14:31:55;3.03;;;1.20;;
18172;SDS011;9211;48.818;9.312;2022-10-16T14:34:24;1.92;;;1.10;;
18172;SDS011;9211;48.818;9.312;2022-10-16T14:36:52;2.95;;;1.20;;
18172;SDS011;9211;48.818;9.312;2022-10-16T14:39:20;4.03;;;1.17;;
18172;SDS011;9211;48.818;9.312;2022-10-16T14:41:50;1.88;;;1.13;;
18172;SDS011;9211;48.818;9.312;2022-10-16T14:44:31;2.80;;;1.20;;
18172;SDS011;9211;48.818;9.312;2022-10-16T14:47:06;2.83;;;1.20;;
18172;SDS011;9211;48.818;9.312;2022-10-16T14:49:36;2.05;;;1.30;;
18172;SDS011;9211;48.818;9.312;2022-10-16T14:52:05;3.80;;;1.60;;
18172;SDS011;9211;48.818;9.312;2022-10-16T14:54:36;2.65;;;1.58;;
18172;SDS011;9211;48.818;9.312;2022-10-16T14:57:03;3.90;;;2.00;;
18172;SDS011;9211;48.818;9.312;2022-10-16T14:59:33;4.30;;;1.80;;
18172;SDS011;9211;48.818;9.312;2022-10-16T15:02:08;2.50;;;1.80;;
18172;SDS011;9211;48.818;9.312;2022-10-16T15:04:44;2.13;;;1.48;;
18172;SDS011;9211;48.818;9.312;2022-10-16T15:07:11;2.42;;;1.55;;
18172;SDS011;9211;48.818;9.312;2022-10-16T15:09:38;2.22;;;1.33;;
18172;SDS011;9211;48.818;9.312;2022-10-16T15:12:05;3.20;;;1.30;;
18172;SDS011;9211;48.818;9.312;2022-10-16T15:14:33;3.63;;;1.25;;
18172;SDS011;9211;48.818;9.312;2022-10-16T15:17:00;4.40;;;1.30;;
18172;SDS011;9211;48.818;9.312;2022-10-16T15:19:28;1.90;;;1.20;;
18172;SDS011;9211;48.818;9.312;2022-10-16T15:21:55;1.92;;;1.20;;
18172;SDS011;9211;48.818;9.312;2022-10-16T15:24:22;2.33;;;1.23;;